Strona główna
METAR-TAF:

METAR-TAF

Lotnisko :

Karaczi, Pakistan

Port lotniczy Dźinnaha w Karaczi

Szerokość geograficzna: 24-54N, Długość geograficzna: 067-08E, wysokość: 21 m

Aktualna obserwacja pogody

Raport powstał 47 minut temu, godzina 04:55 UTC
Wiatr 14 kt od północno-północny wschód
Temperatura 22°C
Wilgotność 25%
Ciśnienie 1018 hPa
Widzialność: 4000 m
zmętnienie

METAR: OPKC 180455Z 03014KT 4000 HZ NSC 22/01 Q1018 NOSIG

czas: 10:42 (05:42 UTC)

Prognoza

Raport powstał 2 godziny i 12 minut temu, godzina 03:30 UTC
Prognoza ważna od 18 godzina 06 UTC do 18 godzina 15 UTC
Wiatr 8 kt od północny wschód w porywach dochodzący do 18 kt
Widzialność: 6000 m

TAF: OPKC 180330Z 1806/1815 05008G18KT 6000 NSC

Obserwacja i prognoza pogody dla ponad 4000 lotnisk (raport METAR i TAF).

Dostępne stacje oznaczono żółtymi i czerwonymi punktami na mapie.

Najedź kursorem aby zobaczyć nazwę stacji.

Kliknij aby zobaczyć obserwacje i prognozy pogody.

Aby zmienić mapę: kliknij na zielony przycisk z czarnym krzyżykiem, aby powiększyć; na zielony przycisk z myślnikiem, aby pomniejszyć; na zielone strzałki, aby przejść do map sąsiednich.


METAR-TAF: